createdAt,value
2022-11-07T00:03:28.575Z,1.80
2022-11-07T00:08:31.875Z,1.75
2022-11-07T00:13:34.114Z,1.73
2022-11-07T00:18:36.276Z,1.50
2022-11-07T00:23:42.177Z,1.60
2022-11-07T00:28:44.464Z,1.52
2022-11-07T00:33:46.390Z,1.42
2022-11-07T00:38:48.179Z,1.30
2022-11-07T00:43:49.907Z,1.45
2022-11-07T00:48:52.597Z,1.58
2022-11-07T00:53:54.457Z,1.50
2022-11-07T00:58:57.840Z,1.60
2022-11-07T01:04:18.074Z,1.42
2022-11-07T01:09:21.589Z,0.93
2022-11-07T01:14:24.080Z,1.50
2022-11-07T01:19:25.718Z,1.27
2022-11-07T01:24:27.393Z,1.48
2022-11-07T01:29:29.085Z,1.10
2022-11-07T01:34:30.718Z,1.23
2022-11-07T01:39:32.369Z,1.30
2022-11-07T01:44:36.811Z,1.20
2022-11-07T01:49:41.101Z,1.48
2022-11-07T01:59:52.764Z,1.48
2022-11-07T02:05:00.219Z,1.70
2022-11-07T02:10:03.058Z,1.55
2022-11-07T02:15:07.218Z,1.50
2022-11-07T02:20:09.476Z,1.67
2022-11-07T02:25:15.140Z,1.30
2022-11-07T02:30:23.456Z,2.10
2022-11-07T02:35:44.164Z,2.08
2022-11-07T02:40:51.227Z,2.03
2022-11-07T02:45:54.492Z,1.58
2022-11-07T02:50:56.402Z,2.38
2022-11-07T02:55:58.025Z,1.88
2022-11-07T03:01:02.929Z,1.60
2022-11-07T03:06:05.648Z,1.65
2022-11-07T03:11:07.523Z,1.80
2022-11-07T03:16:11.095Z,1.95
2022-11-07T03:21:12.892Z,1.60
2022-11-07T03:26:14.583Z,2.00
2022-11-07T03:31:16.194Z,1.90
2022-11-07T03:36:17.842Z,2.10
2022-11-07T03:41:19.448Z,2.03
2022-11-07T03:46:22.048Z,2.25
2022-11-07T03:51:23.979Z,2.22
2022-11-07T03:56:25.623Z,2.47
2022-11-07T04:01:27.406Z,2.55
2022-11-07T04:06:29.177Z,3.30
2022-11-07T04:11:50.265Z,2.35
2022-11-07T04:17:10.722Z,2.60
2022-11-07T04:22:12.367Z,2.67
2022-11-07T04:27:33.560Z,2.72
2022-11-07T04:32:35.173Z,3.20
2022-11-07T04:37:36.806Z,3.75
2022-11-07T04:42:39.071Z,4.43
2022-11-07T04:47:41.272Z,6.00
2022-11-07T04:52:43.449Z,6.18
2022-11-07T04:57:45.590Z,6.07
2022-11-07T05:02:48.117Z,3.85
2022-11-07T05:07:50.096Z,3.13
2022-11-07T05:12:52.419Z,3.30
2022-11-07T05:17:54.039Z,3.30
2022-11-07T05:23:14.722Z,3.97
2022-11-07T05:28:39.782Z,3.85
2022-11-07T05:33:42.111Z,3.33
2022-11-07T05:38:46.385Z,3.20
2022-11-07T05:48:51.032Z,3.35
2022-11-07T05:53:53.642Z,2.50
2022-11-07T05:58:55.241Z,3.35
2022-11-07T06:03:56.824Z,2.58
2022-11-07T06:08:59.029Z,2.75
2022-11-07T06:14:00.691Z,3.42
2022-11-07T06:19:02.565Z,2.67
2022-11-07T06:24:04.432Z,2.35
2022-11-07T06:29:06.143Z,2.30
2022-11-07T06:34:07.872Z,2.63
2022-11-07T06:39:09.461Z,2.22
2022-11-07T06:44:11.069Z,2.70
2022-11-07T06:49:13.602Z,2.88
2022-11-07T06:54:15.379Z,2.95
2022-11-07T06:59:17.153Z,3.65
2022-11-07T07:04:18.790Z,2.58
2022-11-07T07:09:20.427Z,3.08
2022-11-07T07:14:22.107Z,3.70
2022-11-07T07:19:23.708Z,3.58
2022-11-07T07:24:26.304Z,3.13
2022-11-07T07:29:28.092Z,3.22
2022-11-07T07:34:29.812Z,2.92
2022-11-07T07:39:31.471Z,2.60
2022-11-07T07:44:33.183Z,2.75
2022-11-07T07:49:34.859Z,2.13
2022-11-07T07:54:37.620Z,2.50
2022-11-07T07:59:39.292Z,2.70
2022-11-07T08:04:41.576Z,2.55
2022-11-07T08:09:43.297Z,1.90
2022-11-07T08:14:44.932Z,2.15
2022-11-07T08:19:46.660Z,1.75
2022-11-07T08:24:48.479Z,1.80
2022-11-07T08:29:50.187Z,1.92
2022-11-07T08:34:58.893Z,2.30
2022-11-07T08:40:00.597Z,1.42
2022-11-07T08:45:02.258Z,1.67
2022-11-07T08:50:05.068Z,1.50
2022-11-07T08:55:07.716Z,1.30
2022-11-07T09:00:10.013Z,1.35
2022-11-07T09:05:12.729Z,0.90
2022-11-07T09:10:14.464Z,1.40
2022-11-07T09:15:16.797Z,1.20
2022-11-07T09:20:18.668Z,1.20
2022-11-07T09:25:20.343Z,1.40
2022-11-07T09:30:22.223Z,1.42
2022-11-07T09:35:24.047Z,1.27
2022-11-07T09:40:56.208Z,1.00
2022-11-07T09:46:09.953Z,0.95
2022-11-07T09:51:20.545Z,1.40
2022-11-07T09:56:22.178Z,1.90
2022-11-07T10:01:31.783Z,1.70
2022-11-07T10:06:38.214Z,1.40
2022-11-07T10:11:56.868Z,1.30
2022-11-07T10:17:33.002Z,1.08
2022-11-07T10:22:45.533Z,1.40
2022-11-07T10:28:00.339Z,1.30
2022-11-07T10:33:11.213Z,1.33
2022-11-07T10:38:33.686Z,1.05
2022-11-07T10:43:40.801Z,1.30
2022-11-07T10:49:02.613Z,0.82
2022-11-07T10:54:21.873Z,1.10
2022-11-07T10:59:34.555Z,0.82
2022-11-07T11:04:38.349Z,1.07
2022-11-07T11:09:54.148Z,0.90
2022-11-07T11:15:15.602Z,0.60
2022-11-07T11:20:32.102Z,0.55
2022-11-07T11:25:44.823Z,0.98
2022-11-07T11:30:50.828Z,0.90
2022-11-07T11:36:27.709Z,0.82
2022-11-07T11:41:56.539Z,0.60
2022-11-07T11:47:06.500Z,1.00
2022-11-07T11:52:10.972Z,0.80
2022-11-07T12:03:01.832Z,0.70
2022-11-07T12:08:21.503Z,0.80
2022-11-07T12:13:48.837Z,0.73
2022-11-07T12:19:05.628Z,0.55
2022-11-07T12:24:42.719Z,0.82
2022-11-07T12:30:05.707Z,0.57
2022-11-07T12:35:26.375Z,0.82
2022-11-07T12:40:37.354Z,1.15
2022-11-07T12:45:53.900Z,0.80
2022-11-07T12:51:15.445Z,1.08
2022-11-07T12:56:23.445Z,0.70
2022-11-07T13:01:38.806Z,1.13
2022-11-07T13:06:55.316Z,1.00
2022-11-07T13:12:20.628Z,1.17
2022-11-07T13:17:27.722Z,1.30
2022-11-07T13:22:40.741Z,1.08
2022-11-07T13:27:45.778Z,0.63
2022-11-07T13:32:49.819Z,0.80
2022-11-07T13:38:05.845Z,0.50
2022-11-07T13:43:17.823Z,0.57
2022-11-07T13:48:28.703Z,0.68
2022-11-07T13:53:37.434Z,0.80
2022-11-07T13:58:41.759Z,0.82
2022-11-07T14:08:47.542Z,0.90
2022-11-07T14:13:53.025Z,0.80
2022-11-07T14:19:03.575Z,0.70
2022-11-07T14:24:21.358Z,0.90
2022-11-07T14:29:23.533Z,0.80
2022-11-07T14:34:25.341Z,0.82
2022-11-07T14:39:29.831Z,0.90
2022-11-07T14:50:01.566Z,1.40
2022-11-07T14:55:14.148Z,1.10
2022-11-07T15:00:19.897Z,1.30
2022-11-07T15:05:43.787Z,1.20
2022-11-07T15:10:45.495Z,1.37
2022-11-07T15:15:58.806Z,1.48
2022-11-07T15:21:01.608Z,0.90
2022-11-07T15:26:06.576Z,1.27
2022-11-07T15:31:18.475Z,1.20
2022-11-07T15:36:21.802Z,1.40
2022-11-07T15:41:23.464Z,1.30
2022-11-07T15:46:36.020Z,1.60
2022-11-07T15:51:37.756Z,1.60
2022-11-07T15:56:41.074Z,1.52
2022-11-07T16:01:43.092Z,1.35
2022-11-07T16:06:46.244Z,1.00
2022-11-07T16:11:48.496Z,1.08
2022-11-07T16:16:50.189Z,1.00
2022-11-07T16:21:51.868Z,1.17
2022-11-07T16:26:54.432Z,1.00
2022-11-07T16:31:56.174Z,0.90
2022-11-07T16:36:57.824Z,1.10
2022-11-07T16:41:59.471Z,1.20
2022-11-07T16:47:01.180Z,1.27
2022-11-07T16:52:04.022Z,1.35
2022-11-07T16:57:14.224Z,1.67
2022-11-07T17:02:24.963Z,2.13
2022-11-07T17:07:26.734Z,1.50
2022-11-07T17:12:28.858Z,1.52
2022-11-07T17:17:30.572Z,1.50
2022-11-07T17:22:32.184Z,1.75
2022-11-07T17:27:33.824Z,2.15
2022-11-07T17:32:35.427Z,2.15
2022-11-07T17:37:37.446Z,2.10
2022-11-07T17:42:39.321Z,2.50
2022-11-07T17:47:41.231Z,2.55
2022-11-07T17:52:42.952Z,2.70
2022-11-07T17:57:45.848Z,2.35
2022-11-07T18:02:50.065Z,2.72
2022-11-07T18:12:56.991Z,2.88
2022-11-07T18:23:00.266Z,2.75
2022-11-07T18:28:02.010Z,3.03
2022-11-07T18:33:03.929Z,2.97
2022-11-07T18:38:05.585Z,3.00
2022-11-07T18:43:09.974Z,3.13
2022-11-07T18:48:13.904Z,3.60
2022-11-07T18:53:16.883Z,3.17
2022-11-07T18:58:18.825Z,3.05
2022-11-07T19:03:22.098Z,3.28
2022-11-07T19:08:23.795Z,3.30
2022-11-07T19:13:26.528Z,3.78
2022-11-07T19:18:28.233Z,3.60
2022-11-07T19:23:30.527Z,3.75
2022-11-07T19:28:32.747Z,3.40
2022-11-07T19:33:34.434Z,3.70
2022-11-07T19:38:36.181Z,4.32
2022-11-07T19:43:38.697Z,5.30
2022-11-07T19:48:40.532Z,5.28
2022-11-07T19:53:42.986Z,5.32
2022-11-07T19:58:44.668Z,5.10
2022-11-07T20:03:48.314Z,4.88
2022-11-07T20:08:50.941Z,4.47
2022-11-07T20:13:58.630Z,4.50
2022-11-07T20:19:04.117Z,4.30
2022-11-07T20:24:08.940Z,5.40
2022-11-07T20:29:10.693Z,4.38
2022-11-07T20:34:15.364Z,5.00
2022-11-07T20:39:17.092Z,4.70
2022-11-07T20:44:18.761Z,4.63
2022-11-07T20:49:21.706Z,5.07
2022-11-07T20:54:23.475Z,5.25
2022-11-07T20:59:25.238Z,5.03
2022-11-07T21:04:27.013Z,5.00
2022-11-07T21:09:28.751Z,5.05
2022-11-07T21:14:30.479Z,5.18
2022-11-07T21:19:32.267Z,4.32
2022-11-07T21:24:34.028Z,4.40
2022-11-07T21:29:35.787Z,4.50
2022-11-07T21:34:39.785Z,4.68
2022-11-07T21:39:41.489Z,4.28
2022-11-07T21:44:46.207Z,3.88
2022-11-07T21:49:49.866Z,3.42
2022-11-07T21:54:54.700Z,4.27
2022-11-07T21:59:56.603Z,4.03
2022-11-07T22:04:58.403Z,3.58
2022-11-07T22:10:02.759Z,3.50
2022-11-07T22:20:08.371Z,4.00
2022-11-07T22:25:10.021Z,5.30
2022-11-07T22:30:11.989Z,4.35
2022-11-07T22:35:13.690Z,4.72
2022-11-07T22:40:19.917Z,4.80
2022-11-07T22:45:22.040Z,5.25
2022-11-07T22:50:23.755Z,5.03
2022-11-07T22:55:25.539Z,6.00
2022-11-07T23:00:27.272Z,6.43
2022-11-07T23:05:28.946Z,6.55
2022-11-07T23:10:30.601Z,5.75
2022-11-07T23:15:32.470Z,5.57
2022-11-07T23:20:52.584Z,6.00
2022-11-07T23:25:54.274Z,5.78
2022-11-07T23:30:56.007Z,6.25
2022-11-07T23:36:01.364Z,5.93
2022-11-07T23:41:05.228Z,6.63
2022-11-07T23:46:25.966Z,6.85
2022-11-07T23:51:27.870Z,6.15
2022-11-07T23:56:29.766Z,6.35
